sensor_id;sensor_type;location;lat;lon;timestamp;P1;durP1;ratioP1;P2;durP2;ratioP2
29838;SDS011;18669;53.356;-1.464;2022-12-07T00:01:30;10.38;;;2.03;;
29838;SDS011;18669;53.356;-1.464;2022-12-07T00:03:59;8.10;;;2.65;;
29838;SDS011;18669;53.356;-1.464;2022-12-07T00:06:33;6.50;;;2.05;;
29838;SDS011;18669;53.356;-1.464;2022-12-07T00:09:02;5.78;;;1.70;;
29838;SDS011;18669;53.356;-1.464;2022-12-07T00:11:29;5.03;;;2.00;;
29838;SDS011;18669;53.356;-1.464;2022-12-07T00:13:56;9.65;;;1.75;;
29838;SDS011;18669;53.356;-1.464;2022-12-07T00:16:25;6.47;;;1.92;;
29838;SDS011;18669;53.356;-1.464;2022-12-07T00:18:53;12.32;;;1.90;;
29838;SDS011;18669;53.356;-1.464;2022-12-07T00:21:21;8.75;;;1.80;;
29838;SDS011;18669;53.356;-1.464;2022-12-07T00:23:50;3.75;;;1.75;;
29838;SDS011;18669;53.356;-1.464;2022-12-07T00:26:18;5.63;;;1.98;;
29838;SDS011;18669;53.356;-1.464;2022-12-07T00:28:46;10.20;;;2.45;;
29838;SDS011;18669;53.356;-1.464;2022-12-07T00:31:14;8.00;;;1.83;;
29838;SDS011;18669;53.356;-1.464;2022-12-07T00:33:42;6.25;;;1.70;;
29838;SDS011;18669;53.356;-1.464;2022-12-07T00:36:09;12.15;;;1.80;;
29838;SDS011;18669;53.356;-1.464;2022-12-07T00:38:39;5.05;;;1.55;;
29838;SDS011;18669;53.356;-1.464;2022-12-07T00:41:12;5.20;;;1.80;;
29838;SDS011;18669;53.356;-1.464;2022-12-07T00:43:41;8.88;;;2.20;;
29838;SDS011;18669;53.356;-1.464;2022-12-07T00:46:08;5.70;;;2.08;;
29838;SDS011;18669;53.356;-1.464;2022-12-07T00:51:00;7.85;;;1.92;;
29838;SDS011;18669;53.356;-1.464;2022-12-07T00:53:26;6.70;;;1.70;;
29838;SDS011;18669;53.356;-1.464;2022-12-07T00:55:53;7.97;;;2.13;;
29838;SDS011;18669;53.356;-1.464;2022-12-07T00:58:21;7.50;;;1.67;;
29838;SDS011;18669;53.356;-1.464;2022-12-07T01:00:48;7.57;;;1.95;;
29838;SDS011;18669;53.356;-1.464;2022-12-07T01:03:15;4.97;;;1.65;;
29838;SDS011;18669;53.356;-1.464;2022-12-07T01:05:51;6.30;;;2.05;;
29838;SDS011;18669;53.356;-1.464;2022-12-07T01:08:19;5.13;;;1.73;;
29838;SDS011;18669;53.356;-1.464;2022-12-07T01:10:45;6.15;;;2.05;;
29838;SDS011;18669;53.356;-1.464;2022-12-07T01:13:12;18.98;;;6.78;;
29838;SDS011;18669;53.356;-1.464;2022-12-07T01:15:42;7.60;;;2.05;;
29838;SDS011;18669;53.356;-1.464;2022-12-07T01:18:10;9.77;;;2.47;;
29838;SDS011;18669;53.356;-1.464;2022-12-07T01:20:37;6.80;;;1.83;;
29838;SDS011;18669;53.356;-1.464;2022-12-07T01:23:04;9.10;;;2.22;;
29838;SDS011;18669;53.356;-1.464;2022-12-07T01:25:30;4.28;;;1.48;;
29838;SDS011;18669;53.356;-1.464;2022-12-07T01:27:56;7.60;;;2.00;;
29838;SDS011;18669;53.356;-1.464;2022-12-07T01:30:23;9.52;;;1.90;;
29838;SDS011;18669;53.356;-1.464;2022-12-07T01:32:49;7.07;;;1.75;;
29838;SDS011;18669;53.356;-1.464;2022-12-07T01:35:16;4.85;;;1.70;;
29838;SDS011;18669;53.356;-1.464;2022-12-07T01:37:42;4.80;;;1.70;;
29838;SDS011;18669;53.356;-1.464;2022-12-07T01:40:08;7.55;;;1.92;;
29838;SDS011;18669;53.356;-1.464;2022-12-07T01:42:36;9.25;;;1.80;;
29838;SDS011;18669;53.356;-1.464;2022-12-07T01:47:47;7.95;;;1.60;;
29838;SDS011;18669;53.356;-1.464;2022-12-07T01:50:23;2.72;;;1.30;;
29838;SDS011;18669;53.356;-1.464;2022-12-07T01:52:52;5.00;;;1.80;;
29838;SDS011;18669;53.356;-1.464;2022-12-07T01:55:22;4.68;;;1.30;;
29838;SDS011;18669;53.356;-1.464;2022-12-07T01:57:52;4.82;;;1.75;;
29838;SDS011;18669;53.356;-1.464;2022-12-07T02:00:20;10.27;;;1.40;;
29838;SDS011;18669;53.356;-1.464;2022-12-07T02:03:00;3.45;;;1.17;;
29838;SDS011;18669;53.356;-1.464;2022-12-07T02:05:48;8.13;;;1.48;;
29838;SDS011;18669;53.356;-1.464;2022-12-07T02:08:19;7.47;;;1.90;;
29838;SDS011;18669;53.356;-1.464;2022-12-07T02:10:47;4.72;;;1.58;;
29838;SDS011;18669;53.356;-1.464;2022-12-07T02:13:15;4.85;;;1.67;;
29838;SDS011;18669;53.356;-1.464;2022-12-07T02:27:07;4.60;;;1.65;;
29838;SDS011;18669;53.356;-1.464;2022-12-07T02:35:19;2.90;;;1.30;;
29838;SDS011;18669;53.356;-1.464;2022-12-07T02:40:48;3.63;;;1.58;;
29838;SDS011;18669;53.356;-1.464;2022-12-07T02:43:28;4.22;;;1.45;;
29838;SDS011;18669;53.356;-1.464;2022-12-07T02:45:59;3.70;;;1.10;;
29838;SDS011;18669;53.356;-1.464;2022-12-07T02:48:30;4.13;;;1.27;;
29838;SDS011;18669;53.356;-1.464;2022-12-07T02:50:57;7.95;;;1.50;;
29838;SDS011;18669;53.356;-1.464;2022-12-07T02:56:11;4.88;;;1.30;;
29838;SDS011;18669;53.356;-1.464;2022-12-07T03:07:00;3.40;;;1.10;;
29838;SDS011;18669;53.356;-1.464;2022-12-07T03:09:51;2.95;;;1.13;;
29838;SDS011;18669;53.356;-1.464;2022-12-07T03:12:50;1.38;;;0.90;;
29838;SDS011;18669;53.356;-1.464;2022-12-07T03:15:43;3.72;;;1.52;;
29838;SDS011;18669;53.356;-1.464;2022-12-07T03:18:18;5.25;;;1.45;;
29838;SDS011;18669;53.356;-1.464;2022-12-07T03:20:48;4.40;;;1.17;;
29838;SDS011;18669;53.356;-1.464;2022-12-07T03:23:19;5.53;;;1.30;;
29838;SDS011;18669;53.356;-1.464;2022-12-07T03:25:49;5.47;;;0.98;;
29838;SDS011;18669;53.356;-1.464;2022-12-07T03:28:20;5.20;;;1.17;;
29838;SDS011;18669;53.356;-1.464;2022-12-07T03:30:56;3.15;;;1.33;;
29838;SDS011;18669;53.356;-1.464;2022-12-07T03:33:29;4.53;;;1.10;;
29838;SDS011;18669;53.356;-1.464;2022-12-07T03:36:01;1.65;;;0.80;;
29838;SDS011;18669;53.356;-1.464;2022-12-07T03:38:35;3.45;;;1.17;;
29838;SDS011;18669;53.356;-1.464;2022-12-07T03:41:18;5.28;;;1.25;;
29838;SDS011;18669;53.356;-1.464;2022-12-07T03:43:49;5.18;;;1.20;;
29838;SDS011;18669;53.356;-1.464;2022-12-07T03:57:20;2.55;;;0.82;;
29838;SDS011;18669;53.356;-1.464;2022-12-07T03:59:48;8.40;;;1.63;;
29838;SDS011;18669;53.356;-1.464;2022-12-07T04:02:16;1.17;;;0.88;;
29838;SDS011;18669;53.356;-1.464;2022-12-07T04:04:43;3.20;;;1.00;;
29838;SDS011;18669;53.356;-1.464;2022-12-07T04:07:12;5.85;;;1.40;;
29838;SDS011;18669;53.356;-1.464;2022-12-07T04:09:38;1.63;;;1.52;;
29838;SDS011;18669;53.356;-1.464;2022-12-07T04:12:05;6.45;;;1.58;;
29838;SDS011;18669;53.356;-1.464;2022-12-07T04:14:31;3.63;;;1.20;;
29838;SDS011;18669;53.356;-1.464;2022-12-07T04:16:58;3.92;;;1.00;;
29838;SDS011;18669;53.356;-1.464;2022-12-07T04:19:25;1.10;;;0.98;;
29838;SDS011;18669;53.356;-1.464;2022-12-07T04:21:56;5.22;;;0.98;;
29838;SDS011;18669;53.356;-1.464;2022-12-07T04:24:23;2.50;;;1.10;;
29838;SDS011;18669;53.356;-1.464;2022-12-07T04:26:50;2.72;;;1.10;;
29838;SDS011;18669;53.356;-1.464;2022-12-07T04:31:42;7.57;;;1.00;;
29838;SDS011;18669;53.356;-1.464;2022-12-07T04:34:09;6.57;;;1.25;;
29838;SDS011;18669;53.356;-1.464;2022-12-07T04:36:37;10.18;;;1.30;;
29838;SDS011;18669;53.356;-1.464;2022-12-07T04:39:04;3.63;;;1.27;;
29838;SDS011;18669;53.356;-1.464;2022-12-07T04:41:30;7.25;;;0.80;;
29838;SDS011;18669;53.356;-1.464;2022-12-07T04:43:57;6.20;;;1.13;;
29838;SDS011;18669;53.356;-1.464;2022-12-07T04:46:25;4.00;;;0.82;;
29838;SDS011;18669;53.356;-1.464;2022-12-07T04:48:54;6.38;;;1.05;;
29838;SDS011;18669;53.356;-1.464;2022-12-07T04:51:22;3.42;;;1.10;;
29838;SDS011;18669;53.356;-1.464;2022-12-07T04:53:51;8.57;;;1.10;;
29838;SDS011;18669;53.356;-1.464;2022-12-07T04:56:20;5.03;;;1.10;;
29838;SDS011;18669;53.356;-1.464;2022-12-07T04:58:47;3.45;;;1.23;;
29838;SDS011;18669;53.356;-1.464;2022-12-07T05:01:14;1.63;;;0.90;;
29838;SDS011;18669;53.356;-1.464;2022-12-07T05:03:42;5.15;;;1.10;;
29838;SDS011;18669;53.356;-1.464;2022-12-07T05:06:09;4.20;;;1.10;;
29838;SDS011;18669;53.356;-1.464;2022-12-07T05:08:36;4.93;;;0.93;;
29838;SDS011;18669;53.356;-1.464;2022-12-07T05:11:02;4.97;;;1.45;;
29838;SDS011;18669;53.356;-1.464;2022-12-07T05:13:29;4.13;;;1.23;;
29838;SDS011;18669;53.356;-1.464;2022-12-07T05:18:21;5.15;;;1.08;;
29838;SDS011;18669;53.356;-1.464;2022-12-07T05:20:47;2.90;;;1.23;;
29838;SDS011;18669;53.356;-1.464;2022-12-07T05:23:13;6.85;;;1.17;;
29838;SDS011;18669;53.356;-1.464;2022-12-07T05:25:39;1.33;;;0.80;;
29838;SDS011;18669;53.356;-1.464;2022-12-07T05:28:06;1.92;;;1.10;;
29838;SDS011;18669;53.356;-1.464;2022-12-07T05:30:32;3.00;;;1.10;;
29838;SDS011;18669;53.356;-1.464;2022-12-07T05:32:58;5.00;;;1.17;;
29838;SDS011;18669;53.356;-1.464;2022-12-07T05:35:24;4.28;;;1.75;;
29838;SDS011;18669;53.356;-1.464;2022-12-07T05:37:50;4.82;;;0.95;;
29838;SDS011;18669;53.356;-1.464;2022-12-07T05:40:17;3.65;;;1.35;;
29838;SDS011;18669;53.356;-1.464;2022-12-07T05:42:44;1.80;;;1.00;;
29838;SDS011;18669;53.356;-1.464;2022-12-07T05:45:11;2.00;;;1.00;;
29838;SDS011;18669;53.356;-1.464;2022-12-07T05:47:37;1.52;;;0.85;;
29838;SDS011;18669;53.356;-1.464;2022-12-07T05:50:03;0.95;;;0.80;;
29838;SDS011;18669;53.356;-1.464;2022-12-07T05:52:30;2.55;;;0.90;;
29838;SDS011;18669;53.356;-1.464;2022-12-07T05:57:22;5.35;;;1.00;;
29838;SDS011;18669;53.356;-1.464;2022-12-07T05:59:48;2.53;;;1.10;;
29838;SDS011;18669;53.356;-1.464;2022-12-07T06:02:15;3.45;;;1.10;;
29838;SDS011;18669;53.356;-1.464;2022-12-07T06:04:44;3.28;;;0.93;;
29838;SDS011;18669;53.356;-1.464;2022-12-07T06:07:13;5.22;;;0.90;;
29838;SDS011;18669;53.356;-1.464;2022-12-07T06:09:40;5.55;;;1.20;;
29838;SDS011;18669;53.356;-1.464;2022-12-07T06:12:09;2.50;;;1.00;;
29838;SDS011;18669;53.356;-1.464;2022-12-07T06:14:55;1.60;;;1.13;;
29838;SDS011;18669;53.356;-1.464;2022-12-07T06:17:22;1.58;;;0.95;;
29838;SDS011;18669;53.356;-1.464;2022-12-07T06:22:14;2.75;;;0.73;;
29838;SDS011;18669;53.356;-1.464;2022-12-07T06:24:41;3.65;;;1.15;;
29838;SDS011;18669;53.356;-1.464;2022-12-07T06:27:10;3.75;;;1.13;;
29838;SDS011;18669;53.356;-1.464;2022-12-07T06:29:36;1.55;;;1.00;;
29838;SDS011;18669;53.356;-1.464;2022-12-07T06:32:03;1.88;;;1.08;;
29838;SDS011;18669;53.356;-1.464;2022-12-07T06:34:30;5.20;;;1.13;;
29838;SDS011;18669;53.356;-1.464;2022-12-07T06:36:56;1.75;;;0.82;;
29838;SDS011;18669;53.356;-1.464;2022-12-07T06:39:24;3.42;;;1.13;;
29838;SDS011;18669;53.356;-1.464;2022-12-07T06:41:51;2.25;;;1.00;;
29838;SDS011;18669;53.356;-1.464;2022-12-07T06:44:18;4.57;;;1.17;;
29838;SDS011;18669;53.356;-1.464;2022-12-07T06:46:44;4.03;;;1.33;;
29838;SDS011;18669;53.356;-1.464;2022-12-07T06:49:10;5.30;;;1.27;;
29838;SDS011;18669;53.356;-1.464;2022-12-07T06:51:37;1.30;;;1.20;;
29838;SDS011;18669;53.356;-1.464;2022-12-07T06:54:07;3.60;;;0.93;;
29838;SDS011;18669;53.356;-1.464;2022-12-07T06:56:36;2.15;;;1.13;;
29838;SDS011;18669;53.356;-1.464;2022-12-07T06:59:03;2.92;;;1.23;;
29838;SDS011;18669;53.356;-1.464;2022-12-07T07:01:31;3.50;;;1.30;;
29838;SDS011;18669;53.356;-1.464;2022-12-07T07:03:57;3.45;;;1.05;;
29838;SDS011;18669;53.356;-1.464;2022-12-07T07:06:23;1.45;;;1.00;;
29838;SDS011;18669;53.356;-1.464;2022-12-07T07:11:15;2.75;;;1.30;;
29838;SDS011;18669;53.356;-1.464;2022-12-07T07:13:42;1.20;;;1.10;;
29838;SDS011;18669;53.356;-1.464;2022-12-07T07:16:08;8.75;;;4.05;;
29838;SDS011;18669;53.356;-1.464;2022-12-07T07:18:35;7.30;;;3.20;;
29838;SDS011;18669;53.356;-1.464;2022-12-07T07:21:02;2.70;;;1.25;;
29838;SDS011;18669;53.356;-1.464;2022-12-07T07:23:29;8.65;;;1.63;;
29838;SDS011;18669;53.356;-1.464;2022-12-07T07:28:21;4.32;;;1.20;;
29838;SDS011;18669;53.356;-1.464;2022-12-07T07:30:47;1.83;;;1.00;;
29838;SDS011;18669;53.356;-1.464;2022-12-07T07:33:13;5.05;;;1.27;;
29838;SDS011;18669;53.356;-1.464;2022-12-07T07:35:39;1.48;;;1.13;;
29838;SDS011;18669;53.356;-1.464;2022-12-07T07:38:06;2.20;;;1.42;;
29838;SDS011;18669;53.356;-1.464;2022-12-07T07:40:33;5.80;;;1.30;;
29838;SDS011;18669;53.356;-1.464;2022-12-07T07:43:00;1.45;;;1.00;;
29838;SDS011;18669;53.356;-1.464;2022-12-07T07:45:26;2.17;;;1.15;;
29838;SDS011;18669;53.356;-1.464;2022-12-07T07:47:53;3.47;;;1.40;;
29838;SDS011;18669;53.356;-1.464;2022-12-07T07:52:45;2.10;;;1.10;;
29838;SDS011;18669;53.356;-1.464;2022-12-07T07:55:11;4.25;;;1.15;;
29838;SDS011;18669;53.356;-1.464;2022-12-07T07:57:38;3.55;;;1.20;;
29838;SDS011;18669;53.356;-1.464;2022-12-07T08:00:08;8.85;;;1.77;;
29838;SDS011;18669;53.356;-1.464;2022-12-07T08:02:37;7.97;;;1.40;;
29838;SDS011;18669;53.356;-1.464;2022-12-07T08:05:04;4.05;;;1.10;;
29838;SDS011;18669;53.356;-1.464;2022-12-07T08:07:30;3.92;;;1.73;;
29838;SDS011;18669;53.356;-1.464;2022-12-07T08:09:56;3.50;;;1.35;;
29838;SDS011;18669;53.356;-1.464;2022-12-07T08:12:22;8.27;;;1.77;;
29838;SDS011;18669;53.356;-1.464;2022-12-07T08:14:49;4.13;;;1.50;;
29838;SDS011;18669;53.356;-1.464;2022-12-07T08:17:15;5.03;;;1.52;;
29838;SDS011;18669;53.356;-1.464;2022-12-07T08:19:41;2.72;;;1.38;;
29838;SDS011;18669;53.356;-1.464;2022-12-07T08:22:07;3.50;;;1.48;;
29838;SDS011;18669;53.356;-1.464;2022-12-07T08:24:33;3.55;;;1.48;;
29838;SDS011;18669;53.356;-1.464;2022-12-07T08:27:00;4.75;;;1.63;;
29838;SDS011;18669;53.356;-1.464;2022-12-07T08:29:26;2.00;;;1.20;;
29838;SDS011;18669;53.356;-1.464;2022-12-07T08:31:52;8.77;;;1.48;;
29838;SDS011;18669;53.356;-1.464;2022-12-07T08:34:19;2.13;;;1.48;;
29838;SDS011;18669;53.356;-1.464;2022-12-07T08:36:45;3.20;;;1.70;;
29838;SDS011;18669;53.356;-1.464;2022-12-07T08:39:11;8.27;;;1.85;;
29838;SDS011;18669;53.356;-1.464;2022-12-07T08:41:37;8.32;;;4.88;;
29838;SDS011;18669;53.356;-1.464;2022-12-07T08:44:03;6.65;;;2.50;;
29838;SDS011;18669;53.356;-1.464;2022-12-07T08:46:45;5.43;;;1.85;;
29838;SDS011;18669;53.356;-1.464;2022-12-07T08:49:21;4.13;;;1.73;;
29838;SDS011;18669;53.356;-1.464;2022-12-07T08:51:56;5.25;;;1.60;;
29838;SDS011;18669;53.356;-1.464;2022-12-07T08:56:48;2.25;;;1.50;;
29838;SDS011;18669;53.356;-1.464;2022-12-07T08:59:16;4.10;;;2.53;;
29838;SDS011;18669;53.356;-1.464;2022-12-07T09:01:44;3.22;;;1.73;;
29838;SDS011;18669;53.356;-1.464;2022-12-07T09:04:10;2.95;;;1.95;;
29838;SDS011;18669;53.356;-1.464;2022-12-07T09:06:37;3.50;;;2.13;;
29838;SDS011;18669;53.356;-1.464;2022-12-07T09:09:04;4.22;;;2.20;;
29838;SDS011;18669;53.356;-1.464;2022-12-07T09:11:32;5.72;;;2.25;;
29838;SDS011;18669;53.356;-1.464;2022-12-07T09:13:58;9.23;;;2.33;;
29838;SDS011;18669;53.356;-1.464;2022-12-07T09:16:24;2.97;;;1.92;;
29838;SDS011;18669;53.356;-1.464;2022-12-07T09:18:51;1.70;;;1.55;;
29838;SDS011;18669;53.356;-1.464;2022-12-07T09:21:17;5.28;;;1.80;;
29838;SDS011;18669;53.356;-1.464;2022-12-07T09:23:43;1.67;;;1.38;;
29838;SDS011;18669;53.356;-1.464;2022-12-07T09:26:10;3.22;;;1.58;;
29838;SDS011;18669;53.356;-1.464;2022-12-07T09:28:37;4.55;;;1.55;;
29838;SDS011;18669;53.356;-1.464;2022-12-07T09:31:04;2.33;;;1.45;;
29838;SDS011;18669;53.356;-1.464;2022-12-07T09:33:30;5.40;;;2.40;;
29838;SDS011;18669;53.356;-1.464;2022-12-07T09:35:56;5.60;;;1.60;;
29838;SDS011;18669;53.356;-1.464;2022-12-07T09:38:22;3.33;;;2.47;;
29838;SDS011;18669;53.356;-1.464;2022-12-07T09:40:50;3.63;;;1.90;;
29838;SDS011;18669;53.356;-1.464;2022-12-07T09:43:22;3.83;;;1.90;;
29838;SDS011;18669;53.356;-1.464;2022-12-07T09:45:51;2.42;;;1.90;;
29838;SDS011;18669;53.356;-1.464;2022-12-07T09:48:24;4.25;;;2.50;;
29838;SDS011;18669;53.356;-1.464;2022-12-07T09:50:55;12.93;;;7.18;;
29838;SDS011;18669;53.356;-1.464;2022-12-07T09:53:27;11.77;;;4.47;;
29838;SDS011;18669;53.356;-1.464;2022-12-07T09:55:55;9.75;;;3.85;;
29838;SDS011;18669;53.356;-1.464;2022-12-07T09:58:26;3.95;;;2.70;;
29838;SDS011;18669;53.356;-1.464;2022-12-07T10:03:37;8.10;;;3.72;;
29838;SDS011;18669;53.356;-1.464;2022-12-07T10:06:05;8.60;;;4.03;;
29838;SDS011;18669;53.356;-1.464;2022-12-07T10:08:33;9.18;;;4.30;;
29838;SDS011;18669;53.356;-1.464;2022-12-07T10:11:01;7.47;;;4.07;;
29838;SDS011;18669;53.356;-1.464;2022-12-07T10:13:36;7.28;;;4.15;;
29838;SDS011;18669;53.356;-1.464;2022-12-07T10:18:59;10.35;;;3.92;;
29838;SDS011;18669;53.356;-1.464;2022-12-07T10:24:28;9.70;;;4.75;;
29838;SDS011;18669;53.356;-1.464;2022-12-07T10:26:55;7.85;;;4.68;;
29838;SDS011;18669;53.356;-1.464;2022-12-07T10:29:23;9.27;;;4.50;;
29838;SDS011;18669;53.356;-1.464;2022-12-07T10:31:59;15.05;;;6.13;;
29838;SDS011;18669;53.356;-1.464;2022-12-07T10:34:29;7.10;;;3.90;;
29838;SDS011;18669;53.356;-1.464;2022-12-07T10:40:10;5.80;;;2.00;;
29838;SDS011;18669;53.356;-1.464;2022-12-07T10:42:30;2.20;;;1.40;;
29838;SDS011;18669;53.356;-1.464;2022-12-07T10:45:08;6.07;;;2.10;;
29838;SDS011;18669;53.356;-1.464;2022-12-07T10:47:48;5.22;;;2.55;;
29838;SDS011;18669;53.356;-1.464;2022-12-07T10:50:59;11.03;;;4.17;;
29838;SDS011;18669;53.356;-1.464;2022-12-07T10:58:52;10.73;;;4.10;;
29838;SDS011;18669;53.356;-1.464;2022-12-07T11:01:36;3.90;;;2.15;;
29838;SDS011;18669;53.356;-1.464;2022-12-07T11:13:29;3.67;;;1.50;;
29838;SDS011;18669;53.356;-1.464;2022-12-07T11:21:42;3.20;;;1.23;;
29838;SDS011;18669;53.356;-1.464;2022-12-07T11:24:22;4.00;;;1.45;;
29838;SDS011;18669;53.356;-1.464;2022-12-07T11:27:00;5.80;;;1.20;;
29838;SDS011;18669;53.356;-1.464;2022-12-07T11:32:22;2.17;;;1.30;;
29838;SDS011;18669;53.356;-1.464;2022-12-07T11:38:17;4.60;;;1.73;;
29838;SDS011;18669;53.356;-1.464;2022-12-07T11:40:48;5.90;;;1.50;;
29838;SDS011;18669;53.356;-1.464;2022-12-07T11:43:26;5.65;;;1.70;;
29838;SDS011;18669;53.356;-1.464;2022-12-07T11:46:04;6.30;;;1.70;;
29838;SDS011;18669;53.356;-1.464;2022-12-07T11:51:07;5.68;;;1.20;;
29838;SDS011;18669;53.356;-1.464;2022-12-07T11:56:11;3.03;;;1.00;;
29838;SDS011;18669;53.356;-1.464;2022-12-07T11:58:42;6.60;;;1.15;;
29838;SDS011;18669;53.356;-1.464;2022-12-07T12:06:47;3.30;;;1.20;;
29838;SDS011;18669;53.356;-1.464;2022-12-07T12:09:14;2.97;;;0.88;;
29838;SDS011;18669;53.356;-1.464;2022-12-07T12:11:53;4.55;;;0.98;;
29838;SDS011;18669;53.356;-1.464;2022-12-07T12:25:34;3.05;;;1.20;;
29838;SDS011;18669;53.356;-1.464;2022-12-07T12:28:20;3.53;;;1.08;;
29838;SDS011;18669;53.356;-1.464;2022-12-07T12:33:48;2.60;;;1.40;;
29838;SDS011;18669;53.356;-1.464;2022-12-07T12:51:48;1.80;;;1.05;;
29838;SDS011;18669;53.356;-1.464;2022-12-07T13:02:31;2.42;;;1.10;;
29838;SDS011;18669;53.356;-1.464;2022-12-07T13:10:49;5.72;;;1.52;;
29838;SDS011;18669;53.356;-1.464;2022-12-07T13:15:39;3.60;;;0.98;;
29838;SDS011;18669;53.356;-1.464;2022-12-07T13:26:12;6.13;;;1.38;;
29838;SDS011;18669;53.356;-1.464;2022-12-07T13:28:44;23.00;;;11.13;;
29838;SDS011;18669;53.356;-1.464;2022-12-07T13:31:34;3.55;;;1.27;;
29838;SDS011;18669;53.356;-1.464;2022-12-07T13:34:04;7.80;;;1.30;;
29838;SDS011;18669;53.356;-1.464;2022-12-07T13:36:50;3.58;;;1.10;;
29838;SDS011;18669;53.356;-1.464;2022-12-07T13:39:19;2.22;;;1.02;;
29838;SDS011;18669;53.356;-1.464;2022-12-07T13:41:54;2.53;;;1.20;;
29838;SDS011;18669;53.356;-1.464;2022-12-07T13:44:26;8.50;;;1.58;;
29838;SDS011;18669;53.356;-1.464;2022-12-07T13:49:30;8.20;;;1.55;;
29838;SDS011;18669;53.356;-1.464;2022-12-07T13:52:12;5.75;;;1.25;;
29838;SDS011;18669;53.356;-1.464;2022-12-07T13:54:49;2.05;;;0.93;;
29838;SDS011;18669;53.356;-1.464;2022-12-07T13:57:22;3.35;;;1.77;;
29838;SDS011;18669;53.356;-1.464;2022-12-07T13:59:51;3.42;;;1.65;;
29838;SDS011;18669;53.356;-1.464;2022-12-07T14:02:22;8.13;;;1.80;;
29838;SDS011;18669;53.356;-1.464;2022-12-07T14:05:22;7.88;;;1.63;;
29838;SDS011;18669;53.356;-1.464;2022-12-07T14:07:56;8.02;;;1.55;;
29838;SDS011;18669;53.356;-1.464;2022-12-07T14:10:34;5.07;;;1.52;;
29838;SDS011;18669;53.356;-1.464;2022-12-07T14:13:02;6.80;;;2.10;;
29838;SDS011;18669;53.356;-1.464;2022-12-07T14:18:24;9.95;;;1.55;;
29838;SDS011;18669;53.356;-1.464;2022-12-07T14:21:25;8.65;;;1.80;;
29838;SDS011;18669;53.356;-1.464;2022-12-07T14:24:08;4.35;;;2.20;;
29838;SDS011;18669;53.356;-1.464;2022-12-07T14:26:49;8.63;;;1.40;;
29838;SDS011;18669;53.356;-1.464;2022-12-07T14:31:51;6.40;;;2.20;;
29838;SDS011;18669;53.356;-1.464;2022-12-07T14:34:21;4.53;;;2.00;;
29838;SDS011;18669;53.356;-1.464;2022-12-07T14:36:49;8.57;;;2.83;;
29838;SDS011;18669;53.356;-1.464;2022-12-07T14:39:16;8.30;;;2.40;;
29838;SDS011;18669;53.356;-1.464;2022-12-07T14:44:19;8.18;;;2.60;;
29838;SDS011;18669;53.356;-1.464;2022-12-07T14:46:48;10.45;;;2.95;;
29838;SDS011;18669;53.356;-1.464;2022-12-07T14:49:17;6.07;;;3.42;;
29838;SDS011;18669;53.356;-1.464;2022-12-07T14:51:44;6.05;;;3.10;;
29838;SDS011;18669;53.356;-1.464;2022-12-07T14:54:17;7.53;;;3.00;;
29838;SDS011;18669;53.356;-1.464;2022-12-07T14:56:44;7.47;;;3.35;;
29838;SDS011;18669;53.356;-1.464;2022-12-07T14:59:17;8.07;;;3.50;;
29838;SDS011;18669;53.356;-1.464;2022-12-07T15:01:44;10.65;;;3.45;;
29838;SDS011;18669;53.356;-1.464;2022-12-07T15:04:10;7.50;;;3.92;;
29838;SDS011;18669;53.356;-1.464;2022-12-07T15:06:37;11.90;;;4.85;;
29838;SDS011;18669;53.356;-1.464;2022-12-07T15:09:03;17.33;;;7.30;;
29838;SDS011;18669;53.356;-1.464;2022-12-07T15:11:31;23.83;;;11.60;;
29838;SDS011;18669;53.356;-1.464;2022-12-07T15:13:58;16.13;;;6.25;;
29838;SDS011;18669;53.356;-1.464;2022-12-07T15:16:34;9.43;;;5.20;;
29838;SDS011;18669;53.356;-1.464;2022-12-07T15:19:01;11.57;;;6.28;;
29838;SDS011;18669;53.356;-1.464;2022-12-07T15:21:27;17.55;;;8.20;;
29838;SDS011;18669;53.356;-1.464;2022-12-07T15:23:53;10.48;;;6.05;;
29838;SDS011;18669;53.356;-1.464;2022-12-07T15:26:20;10.98;;;6.50;;
29838;SDS011;18669;53.356;-1.464;2022-12-07T15:28:46;11.43;;;5.85;;
29838;SDS011;18669;53.356;-1.464;2022-12-07T15:31:16;11.40;;;6.05;;
29838;SDS011;18669;53.356;-1.464;2022-12-07T15:33:43;12.02;;;6.38;;
29838;SDS011;18669;53.356;-1.464;2022-12-07T15:36:12;9.52;;;5.28;;
29838;SDS011;18669;53.356;-1.464;2022-12-07T15:38:46;11.82;;;4.80;;
29838;SDS011;18669;53.356;-1.464;2022-12-07T15:41:12;11.68;;;4.70;;
29838;SDS011;18669;53.356;-1.464;2022-12-07T15:43:39;9.48;;;5.20;;
29838;SDS011;18669;53.356;-1.464;2022-12-07T15:46:28;8.77;;;5.45;;
29838;SDS011;18669;53.356;-1.464;2022-12-07T15:48:56;12.63;;;5.40;;
29838;SDS011;18669;53.356;-1.464;2022-12-07T15:53:48;11.48;;;5.18;;
29838;SDS011;18669;53.356;-1.464;2022-12-07T15:56:14;10.93;;;6.28;;
29838;SDS011;18669;53.356;-1.464;2022-12-07T15:58:40;9.00;;;5.55;;
29838;SDS011;18669;53.356;-1.464;2022-12-07T16:01:09;12.90;;;5.85;;
29838;SDS011;18669;53.356;-1.464;2022-12-07T16:03:37;13.50;;;5.40;;
29838;SDS011;18669;53.356;-1.464;2022-12-07T16:06:03;11.60;;;6.60;;
29838;SDS011;18669;53.356;-1.464;2022-12-07T16:10:55;13.40;;;6.20;;
29838;SDS011;18669;53.356;-1.464;2022-12-07T16:13:21;11.82;;;5.63;;
29838;SDS011;18669;53.356;-1.464;2022-12-07T16:15:49;11.52;;;7.32;;
29838;SDS011;18669;53.356;-1.464;2022-12-07T16:18:15;18.90;;;8.82;;
29838;SDS011;18669;53.356;-1.464;2022-12-07T16:20:41;24.48;;;10.00;;
29838;SDS011;18669;53.356;-1.464;2022-12-07T16:23:07;14.57;;;7.07;;
29838;SDS011;18669;53.356;-1.464;2022-12-07T16:27:59;15.25;;;6.85;;
29838;SDS011;18669;53.356;-1.464;2022-12-07T16:30:25;8.48;;;5.25;;
29838;SDS011;18669;53.356;-1.464;2022-12-07T16:32:51;14.55;;;6.50;;
29838;SDS011;18669;53.356;-1.464;2022-12-07T16:35:17;10.30;;;5.70;;
29838;SDS011;18669;53.356;-1.464;2022-12-07T16:37:44;8.32;;;5.30;;
29838;SDS011;18669;53.356;-1.464;2022-12-07T16:40:11;8.88;;;5.30;;
29838;SDS011;18669;53.356;-1.464;2022-12-07T16:42:37;15.05;;;5.30;;
29838;SDS011;18669;53.356;-1.464;2022-12-07T16:45:03;12.55;;;5.15;;
29838;SDS011;18669;53.356;-1.464;2022-12-07T16:47:30;7.60;;;4.72;;
29838;SDS011;18669;53.356;-1.464;2022-12-07T16:49:56;10.98;;;4.60;;
29838;SDS011;18669;53.356;-1.464;2022-12-07T16:52:22;13.32;;;5.68;;
29838;SDS011;18669;53.356;-1.464;2022-12-07T16:54:48;8.73;;;4.45;;
29838;SDS011;18669;53.356;-1.464;2022-12-07T16:57:16;13.38;;;4.80;;
29838;SDS011;18669;53.356;-1.464;2022-12-07T16:59:42;10.90;;;4.05;;
29838;SDS011;18669;53.356;-1.464;2022-12-07T17:04:38;9.98;;;5.60;;
29838;SDS011;18669;53.356;-1.464;2022-12-07T17:07:05;9.00;;;4.45;;
29838;SDS011;18669;53.356;-1.464;2022-12-07T17:09:32;15.88;;;6.68;;
29838;SDS011;18669;53.356;-1.464;2022-12-07T17:12:00;10.95;;;4.60;;
29838;SDS011;18669;53.356;-1.464;2022-12-07T17:14:27;14.43;;;6.20;;
29838;SDS011;18669;53.356;-1.464;2022-12-07T17:17:11;19.45;;;7.80;;
29838;SDS011;18669;53.356;-1.464;2022-12-07T17:19:37;12.60;;;6.43;;
29838;SDS011;18669;53.356;-1.464;2022-12-07T17:22:07;13.57;;;6.45;;
29838;SDS011;18669;53.356;-1.464;2022-12-07T17:24:38;11.82;;;4.15;;
29838;SDS011;18669;53.356;-1.464;2022-12-07T17:29:30;10.60;;;5.22;;
29838;SDS011;18669;53.356;-1.464;2022-12-07T17:31:56;11.13;;;5.25;;
29838;SDS011;18669;53.356;-1.464;2022-12-07T17:34:22;8.27;;;3.70;;
29838;SDS011;18669;53.356;-1.464;2022-12-07T17:36:49;8.00;;;3.47;;
29838;SDS011;18669;53.356;-1.464;2022-12-07T17:39:16;7.63;;;3.45;;
29838;SDS011;18669;53.356;-1.464;2022-12-07T17:41:44;5.03;;;2.58;;
29838;SDS011;18669;53.356;-1.464;2022-12-07T17:44:32;7.75;;;2.95;;
29838;SDS011;18669;53.356;-1.464;2022-12-07T17:49:27;8.52;;;2.50;;
29838;SDS011;18669;53.356;-1.464;2022-12-07T17:51:53;9.38;;;2.60;;
29838;SDS011;18669;53.356;-1.464;2022-12-07T17:54:39;7.10;;;3.88;;
29838;SDS011;18669;53.356;-1.464;2022-12-07T17:57:05;7.65;;;3.88;;
29838;SDS011;18669;53.356;-1.464;2022-12-07T17:59:32;9.70;;;4.50;;
29838;SDS011;18669;53.356;-1.464;2022-12-07T18:04:24;13.27;;;4.32;;